Time;durP1;ratioP1;P1;durP2;ratioP2;P2;SDS_P1;SDS_P2;PMS_P1;PMS_P2;Temp;Humidity;BMP_temperature;BMP_pressure;BME280_temperature;BME280_humidity;BME280_pressure;Samples;Min_cycle;Max_cycle;Signal;HPM_P1;HPM_P2
2021/12/08 00:02:11;;;;;;;12.65;2.80;;;3.50;99.90;;;;;;5102616;27;20334;-62
2021/12/08 00:04:38;;;;;;;8.55;2.90;;;3.50;99.90;;;;;;5096579;27;20516;-62
2021/12/08 00:07:05;;;;;;;8.60;2.80;;;3.50;99.90;;;;;;5100167;27;20130;-62
2021/12/08 00:15:16;;;;;;;8.93;2.88;;;3.50;99.90;;;;;;5022694;28;20051;-62
2021/12/08 00:17:42;;;;;;;7.25;2.97;;;3.40;99.90;;;;;;5038712;28;20100;-62
2021/12/08 00:20:08;;;;;;;9.68;2.70;;;3.50;99.90;;;;;;5050996;27;20070;-62
2021/12/08 00:22:34;;;;;;;9.68;2.83;;;3.40;99.90;;;;;;5113506;27;20040;-62
2021/12/08 00:25:00;;;;;;;6.60;2.80;;;3.40;99.90;;;;;;5099023;27;20043;-62
2021/12/08 00:27:25;;;;;;;11.13;2.78;;;3.50;99.90;;;;;;5100357;27;20050;-62
2021/12/08 00:29:51;;;;;;;5.78;2.53;;;3.50;99.90;;;;;;5096040;27;20043;-61
2021/12/08 00:32:20;;;;;;;11.13;3.05;;;3.40;99.90;;;;;;5101210;27;20036;-62
2021/12/08 00:34:46;;;;;;;8.73;3.10;;;3.50;99.90;;;;;;5097670;27;20387;-62
2021/12/08 00:37:12;;;;;;;6.72;2.88;;;3.50;99.90;;;;;;5100161;27;20084;-62
2021/12/08 00:39:38;;;;;;;6.55;2.85;;;3.50;99.90;;;;;;5095936;27;20078;-62
2021/12/08 00:42:04;;;;;;;8.25;2.97;;;3.50;99.90;;;;;;5099093;27;20067;-62
2021/12/08 00:44:29;;;;;;;8.40;2.92;;;3.50;99.90;;;;;;5098904;28;20035;-62
2021/12/08 00:46:56;;;;;;;7.43;3.10;;;3.40;99.90;;;;;;5099527;27;20040;-62
2021/12/08 00:49:21;;;;;;;5.63;2.30;;;3.50;99.90;;;;;;5126922;27;20058;-62
2021/12/08 00:51:47;;;;;;;8.80;2.80;;;3.40;99.90;;;;;;5099567;27;20492;-62
2021/12/08 00:54:19;;;;;;;10.55;2.60;;;3.50;99.90;;;;;;5095500;27;20142;-62
2021/12/08 00:56:44;;;;;;;7.85;2.63;;;3.50;99.90;;;;;;5098759;27;20120;-62
2021/12/08 00:59:10;;;;;;;9.73;3.28;;;3.50;99.90;;;;;;5129407;27;20051;-62
2021/12/08 01:01:37;;;;;;;8.23;2.50;;;3.60;99.90;;;;;;5095654;27;20118;-62
2021/12/08 01:04:03;;;;;;;11.05;3.45;;;3.60;99.90;;;;;;5099079;27;20085;-62
2021/12/08 01:06:30;;;;;;;6.10;2.90;;;3.60;99.90;;;;;;5097629;27;20860;-62
2021/12/08 01:08:56;;;;;;;6.97;3.15;;;3.70;99.90;;;;;;5097910;27;20043;-62
2021/12/08 01:11:22;;;;;;;11.07;3.47;;;3.70;99.90;;;;;;5129358;27;20054;-62
2021/12/08 01:13:49;;;;;;;9.65;3.25;;;3.70;99.90;;;;;;5095490;28;20039;-62
2021/12/08 01:16:15;;;;;;;8.38;3.30;;;3.70;99.90;;;;;;5099010;27;20042;-61
2021/12/08 01:18:42;;;;;;;7.10;2.70;;;3.70;99.90;;;;;;5111080;27;20109;-62
2021/12/08 01:21:10;;;;;;;8.50;3.08;;;3.70;99.90;;;;;;5128303;27;20031;-62
2021/12/08 01:23:37;;;;;;;11.55;3.05;;;3.70;99.90;;;;;;5098316;28;20031;-62
2021/12/08 01:26:05;;;;;;;8.40;2.90;;;3.70;99.90;;;;;;5096725;28;20053;-62
2021/12/08 01:28:32;;;;;;;8.32;3.00;;;3.80;99.90;;;;;;5095152;27;20047;-62
2021/12/08 01:31:00;;;;;;;10.32;2.80;;;3.80;99.90;;;;;;5125583;27;20051;-62
2021/12/08 01:33:27;;;;;;;5.60;2.70;;;3.80;99.90;;;;;;5099822;28;20116;-62
2021/12/08 01:35:53;;;;;;;8.38;2.85;;;3.80;99.90;;;;;;5098317;28;20523;-62
2021/12/08 01:38:19;;;;;;;8.95;3.40;;;3.80;99.90;;;;;;5078855;28;20046;-62
2021/12/08 01:40:45;;;;;;;7.40;2.70;;;3.90;99.90;;;;;;5098781;28;20492;-62
2021/12/08 01:43:23;;;;;;;5.63;2.30;;;3.90;99.90;;;;;;5098639;28;20036;-62
2021/12/08 01:46:00;;;;;;;6.28;2.65;;;3.90;99.90;;;;;;5099205;28;20056;-62
2021/12/08 01:48:31;;;;;;;5.97;2.35;;;4.00;99.90;;;;;;5112389;28;20187;-62
2021/12/08 01:51:01;;;;;;;8.95;2.83;;;4.00;99.90;;;;;;5098422;28;20088;-62
2021/12/08 01:53:28;;;;;;;8.75;2.60;;;4.00;99.90;;;;;;5093711;28;20039;-62
2021/12/08 01:55:54;;;;;;;11.27;3.78;;;4.00;99.90;;;;;;5116544;27;20198;-61
2021/12/08 01:58:20;;;;;;;7.13;2.83;;;4.10;99.90;;;;;;5101209;28;20561;-62
2021/12/08 02:00:54;;;;;;;12.63;3.08;;;4.00;99.90;;;;;;5098027;28;20131;-62
2021/12/08 02:03:21;;;;;;;6.18;2.35;;;4.10;99.90;;;;;;5095969;28;20039;-62
2021/12/08 02:05:47;;;;;;;9.55;3.42;;;4.10;99.90;;;;;;5098345;28;20044;-62
2021/12/08 02:08:13;;;;;;;6.93;3.00;;;4.00;99.90;;;;;;5126840;27;20642;-62
2021/12/08 02:10:41;;;;;;;7.93;3.00;;;4.00;99.90;;;;;;5096669;28;20043;-62
2021/12/08 02:13:07;;;;;;;4.90;2.90;;;4.10;99.90;;;;;;5095002;28;20111;-62
2021/12/08 02:15:34;;;;;;;7.57;2.97;;;4.00;99.90;;;;;;5096963;28;20456;-62
2021/12/08 02:18:00;;;;;;;5.50;2.97;;;4.00;99.90;;;;;;5095694;28;20435;-62
2021/12/08 02:20:27;;;;;;;6.28;3.00;;;4.00;99.90;;;;;;5100139;28;20044;-62
2021/12/08 02:22:53;;;;;;;9.13;3.38;;;4.10;99.90;;;;;;5099516;28;20048;-62
2021/12/08 02:25:22;;;;;;;12.27;3.20;;;4.00;99.90;;;;;;5130723;27;20046;-62
2021/12/08 02:27:49;;;;;;;6.47;3.00;;;4.00;99.90;;;;;;5096739;28;20032;-62
2021/12/08 02:30:56;;;;;;;7.20;3.38;;;4.00;99.90;;;;;;5102679;28;20051;-62
2021/12/08 02:49:30;;;;;;;5.85;3.13;;;4.10;99.90;;;;;;5138144;27;20051;-62
2021/12/08 02:51:55;;;;;;;7.93;3.60;;;4.10;99.90;;;;;;5134467;27;20474;-62
2021/12/08 02:54:21;;;;;;;5.53;3.20;;;4.20;99.90;;;;;;5107738;27;20053;-62
2021/12/08 02:56:48;;;;;;;8.18;3.58;;;4.20;99.90;;;;;;5108204;27;20031;-62
2021/12/08 02:59:14;;;;;;;9.75;3.50;;;4.10;99.90;;;;;;5107755;27;20039;-62
2021/12/08 03:01:40;;;;;;;8.73;3.80;;;4.10;99.90;;;;;;5133033;27;20032;-62
2021/12/08 03:04:07;;;;;;;8.52;3.92;;;4.10;99.90;;;;;;5107016;27;20049;-61
2021/12/08 03:06:34;;;;;;;7.60;3.78;;;4.10;99.90;;;;;;5107550;27;20486;-62
2021/12/08 03:09:00;;;;;;;7.63;3.85;;;4.20;99.90;;;;;;5136034;27;20063;-62
2021/12/08 03:11:26;;;;;;;7.70;4.10;;;4.20;99.90;;;;;;5106870;27;20546;-62
2021/12/08 03:14:08;;;;;;;9.02;4.75;;;4.20;99.90;;;;;;5103295;27;20130;-62
2021/12/08 03:16:36;;;;;;;8.38;4.55;;;4.20;99.90;;;;;;5106086;28;20482;-62
2021/12/08 03:19:02;;;;;;;10.00;4.78;;;4.20;99.90;;;;;;5107574;27;20039;-62
2021/12/08 03:21:31;;;;;;;6.68;4.30;;;4.30;99.90;;;;;;5105038;27;20448;-62
2021/12/08 03:24:11;;;;;;;7.50;4.80;;;4.20;99.90;;;;;;5104994;27;20031;-62
2021/12/08 03:27:03;;;;;;;7.32;5.00;;;4.30;99.90;;;;;;5104792;27;20071;-62
2021/12/08 03:29:37;;;;;;;8.82;5.07;;;4.30;99.90;;;;;;5104053;27;20097;-62
2021/12/08 03:32:08;;;;;;;12.10;4.72;;;4.30;99.90;;;;;;5102675;27;20062;-62
2021/12/08 03:34:38;;;;;;;7.65;5.68;;;4.40;99.90;;;;;;5107043;27;20047;-62
2021/12/08 03:37:07;;;;;;;10.70;5.55;;;4.40;99.90;;;;;;5104610;27;20035;-62
2021/12/08 03:39:34;;;;;;;10.35;5.90;;;4.40;99.90;;;;;;5107347;27;20584;-62
2021/12/08 03:42:01;;;;;;;9.20;4.60;;;4.40;99.90;;;;;;5135701;27;20039;-62
2021/12/08 03:44:26;;;;;;;7.88;5.03;;;4.40;99.90;;;;;;5102289;27;20053;-62
2021/12/08 03:47:00;;;;;;;12.27;5.38;;;4.50;99.90;;;;;;5106803;27;20493;-62
2021/12/08 03:49:27;;;;;;;13.05;5.30;;;4.50;99.90;;;;;;5107016;27;20055;-62
2021/12/08 03:51:58;;;;;;;10.93;6.75;;;4.50;99.90;;;;;;5107173;27;21010;-62
2021/12/08 03:54:23;;;;;;;12.30;7.07;;;4.50;99.90;;;;;;5104183;27;20061;-62
2021/12/08 03:56:49;;;;;;;12.48;7.30;;;4.60;99.90;;;;;;5105436;27;20035;-62
2021/12/08 03:59:15;;;;;;;10.27;7.03;;;4.60;99.90;;;;;;5106152;27;20039;-62
2021/12/08 04:01:41;;;;;;;9.43;7.90;;;4.60;99.90;;;;;;5102172;28;20054;-62
2021/12/08 04:04:09;;;;;;;12.45;8.25;;;4.60;99.90;;;;;;5103326;27;20032;-62
2021/12/08 04:06:50;;;;;;;12.73;7.93;;;4.70;99.90;;;;;;5104280;27;20040;-62
2021/12/08 04:09:34;;;;;;;11.32;7.88;;;4.80;99.90;;;;;;5103737;27;20048;-62
2021/12/08 04:12:01;;;;;;;11.45;7.90;;;4.80;99.90;;;;;;5106083;27;20070;-62
2021/12/08 04:14:31;;;;;;;11.70;7.25;;;4.80;99.90;;;;;;5101657;27;20484;-62
2021/12/08 04:16:56;;;;;;;10.63;7.82;;;4.90;99.90;;;;;;5104210;28;20047;-62
2021/12/08 04:19:23;;;;;;;9.27;7.40;;;5.00;99.90;;;;;;5103258;27;20040;-62
2021/12/08 04:21:51;;;;;;;12.30;7.53;;;5.00;99.90;;;;;;5109160;27;20055;-62
2021/12/08 04:24:17;;;;;;;10.80;6.90;;;5.00;99.90;;;;;;5104136;27;20118;-62
2021/12/08 04:26:50;;;;;;;10.07;6.82;;;5.00;99.90;;;;;;5131952;27;20477;-62
2021/12/08 04:29:19;;;;;;;10.73;6.57;;;5.00;99.90;;;;;;5103460;27;20063;-62
2021/12/08 04:31:45;;;;;;;12.13;6.70;;;5.00;99.90;;;;;;5103224;27;20473;-62
2021/12/08 04:34:19;;;;;;;10.38;6.72;;;5.10;99.90;;;;;;5103992;27;20513;-62
2021/12/08 04:36:48;;;;;;;9.70;6.00;;;5.10;99.90;;;;;;5103499;27;20054;-62
2021/12/08 04:39:21;;;;;;;12.65;6.22;;;5.10;99.90;;;;;;5104517;27;20047;-62
2021/12/08 04:41:53;;;;;;;9.23;6.85;;;5.10;99.90;;;;;;5103067;27;20046;-62
2021/12/08 04:44:30;;;;;;;10.38;6.68;;;5.20;99.90;;;;;;5105745;27;20031;-62
2021/12/08 04:52:20;;;;;;;7.72;5.93;;;5.20;99.90;;;;;;5103284;27;20130;-62
2021/12/08 05:08:40;;;;;;;7.15;5.93;;;5.30;99.90;;;;;;5101845;27;20142;-62
2021/12/08 05:11:09;;;;;;;11.57;6.20;;;5.40;99.90;;;;;;5102918;27;20040;-62
2021/12/08 05:13:35;;;;;;;9.80;5.78;;;5.40;99.90;;;;;;5102047;27;20088;-62
2021/12/08 05:16:02;;;;;;;9.02;6.35;;;5.30;99.90;;;;;;5099662;27;20390;-62
2021/12/08 05:18:37;;;;;;;7.90;5.75;;;5.40;99.90;;;;;;5129859;27;20044;-62
2021/12/08 05:21:09;;;;;;;10.13;5.97;;;5.40;99.90;;;;;;5095208;28;20035;-62
2021/12/08 05:23:44;;;;;;;7.55;5.68;;;5.40;99.90;;;;;;5098167;28;20042;-62
2021/12/08 05:26:16;;;;;;;10.30;5.80;;;5.40;99.90;;;;;;5096120;28;20043;-62
2021/12/08 05:28:45;;;;;;;10.10;6.10;;;5.40;99.90;;;;;;5099019;27;20052;-62
2021/12/08 05:31:22;;;;;;;8.63;5.93;;;5.40;99.90;;;;;;5099279;27;20051;-62
2021/12/08 05:33:49;;;;;;;9.18;5.28;;;5.50;99.90;;;;;;5099669;28;20032;-62
2021/12/08 05:36:15;;;;;;;8.50;5.72;;;5.50;99.90;;;;;;5095867;28;20036;-62
2021/12/08 05:38:41;;;;;;;12.52;5.70;;;5.50;99.90;;;;;;5098837;28;20039;-62
2021/12/08 05:41:09;;;;;;;9.25;4.95;;;5.60;99.90;;;;;;5098411;28;20043;-62
2021/12/08 05:43:34;;;;;;;6.63;5.85;;;5.60;99.90;;;;;;5097074;28;20031;-62
2021/12/08 05:46:00;;;;;;;9.73;5.75;;;5.50;99.90;;;;;;5100322;28;20036;-62
2021/12/08 05:48:29;;;;;;;8.30;5.70;;;5.60;99.90;;;;;;5096857;28;20075;-62
2021/12/08 05:51:04;;;;;;;7.13;5.47;;;5.50;99.90;;;;;;5103588;28;20416;-62
2021/12/08 05:53:32;;;;;;;9.05;5.22;;;5.50;99.90;;;;;;5099538;28;20032;-62
2021/12/08 05:55:58;;;;;;;13.65;6.28;;;5.50;99.90;;;;;;5101204;28;20040;-62
2021/12/08 05:58:25;;;;;;;9.30;5.80;;;5.50;99.90;;;;;;5100277;28;20035;-62
2021/12/08 06:01:07;;;;;;;10.75;6.30;;;5.50;99.90;;;;;;5098125;28;20078;-62
2021/12/08 06:03:34;;;;;;;9.68;5.32;;;5.40;99.90;;;;;;5100605;28;20040;-62
2021/12/08 06:06:00;;;;;;;8.13;5.28;;;5.40;99.90;;;;;;5100645;28;20092;-62
2021/12/08 06:08:28;;;;;;;10.48;5.32;;;5.40;99.90;;;;;;5099046;28;20512;-62
2021/12/08 06:10:55;;;;;;;11.10;5.57;;;5.40;99.90;;;;;;5098675;28;20051;-62
2021/12/08 06:13:21;;;;;;;9.43;5.80;;;5.30;99.90;;;;;;5104255;28;20047;-62
2021/12/08 06:15:49;;;;;;;8.27;5.20;;;5.30;99.90;;;;;;5102041;27;20044;-62
2021/12/08 06:18:19;;;;;;;10.25;6.47;;;5.30;99.90;;;;;;5133617;27;20052;-62
2021/12/08 06:20:46;;;;;;;10.90;5.07;;;5.30;99.90;;;;;;5101708;28;20083;-62
2021/12/08 06:23:12;;;;;;;10.98;4.93;;;5.30;99.90;;;;;;5131489;27;20031;-62
2021/12/08 06:25:39;;;;;;;6.28;4.53;;;5.30;99.90;;;;;;5100837;28;20036;-62
2021/12/08 06:28:08;;;;;;;8.85;4.88;;;5.20;99.90;;;;;;5102495;28;20035;-62
2021/12/08 06:30:35;;;;;;;7.07;4.65;;;5.20;99.90;;;;;;5101953;28;21540;-62
2021/12/08 06:33:02;;;;;;;5.35;3.95;;;5.20;99.90;;;;;;5101810;28;20441;-62
2021/12/08 06:35:33;;;;;;;13.05;4.70;;;5.20;99.90;;;;;;5101747;28;20039;-62
2021/12/08 06:37:59;;;;;;;10.23;4.47;;;5.10;99.90;;;;;;5103471;27;20494;-62
2021/12/08 06:40:33;;;;;;;10.73;4.70;;;5.20;99.90;;;;;;5102630;27;20032;-62
2021/12/08 06:43:03;;;;;;;12.00;4.97;;;5.10;99.90;;;;;;5101249;27;20038;-62
2021/12/08 06:45:32;;;;;;;11.48;4.55;;;5.20;99.90;;;;;;5101717;27;20474;-62
2021/12/08 06:48:02;;;;;;;10.57;3.67;;;5.10;99.90;;;;;;5100160;27;20474;-62
2021/12/08 06:50:37;;;;;;;9.80;3.63;;;5.10;99.90;;;;;;5101171;27;20044;-62
2021/12/08 06:53:03;;;;;;;11.35;4.65;;;5.10;99.90;;;;;;5133021;27;20077;-62
2021/12/08 06:55:36;;;;;;;8.57;3.35;;;5.10;99.90;;;;;;5097471;28;20101;-62
2021/12/08 06:58:14;;;;;;;7.18;3.70;;;5.10;99.90;;;;;;5100068;28;20035;-62
2021/12/08 07:01:02;;;;;;;11.02;3.50;;;5.20;99.90;;;;;;5100600;27;20169;-62
2021/12/08 07:03:37;;;;;;;9.23;3.40;;;5.10;99.90;;;;;;5101708;28;20058;-62
2021/12/08 07:09:24;;;;;;;6.47;3.30;;;5.10;99.90;;;;;;5040022;28;20048;-63
2021/12/08 07:11:51;;;;;;;7.18;3.00;;;5.20;99.90;;;;;;5094975;28;20043;-62
2021/12/08 07:14:17;;;;;;;5.82;2.70;;;5.20;99.90;;;;;;5131257;27;20047;-62
2021/12/08 07:16:47;;;;;;;7.75;2.75;;;5.20;99.90;;;;;;5132108;27;20358;-62
2021/12/08 07:19:35;;;;;;;7.00;2.88;;;5.20;99.90;;;;;;5100620;28;20093;-62
2021/12/08 07:22:05;;;;;;;11.65;2.80;;;5.20;99.90;;;;;;5103521;27;20066;-62
2021/12/08 07:24:35;;;;;;;4.43;2.13;;;5.20;99.90;;;;;;5099850;27;20789;-62
2021/12/08 07:27:06;;;;;;;7.30;3.58;;;5.20;99.90;;;;;;5102323;28;20028;-62
2021/12/08 07:29:34;;;;;;;4.28;1.85;;;5.20;99.90;;;;;;5098304;28;20044;-62
2021/12/08 07:32:06;;;;;;;8.32;2.80;;;5.20;99.90;;;;;;5091588;28;20150;-62
2021/12/08 07:34:35;;;;;;;9.13;2.70;;;5.10;99.90;;;;;;5094588;28;20571;-61
2021/12/08 07:37:05;;;;;;;7.40;2.40;;;5.10;99.90;;;;;;5113641;27;20051;-62
2021/12/08 07:39:34;;;;;;;7.47;2.53;;;5.10;99.90;;;;;;5127287;27;20110;-62
2021/12/08 07:42:07;;;;;;;8.15;2.83;;;5.10;99.90;;;;;;5097505;27;20112;-62
2021/12/08 07:44:33;;;;;;;4.53;1.92;;;5.10;99.90;;;;;;5099257;28;20093;-62
2021/12/08 07:47:07;;;;;;;6.85;4.03;;;5.20;99.90;;;;;;5097977;27;20039;-62
2021/12/08 07:49:47;;;;;;;7.45;2.65;;;5.20;99.90;;;;;;5091478;28;20100;-62
2021/12/08 07:52:17;;;;;;;10.32;2.70;;;5.10;99.90;;;;;;5127617;27;20040;-62
2021/12/08 07:54:44;;;;;;;4.95;2.20;;;5.10;99.90;;;;;;5097006;28;22200;-62
2021/12/08 07:57:16;;;;;;;7.03;2.20;;;5.10;99.90;;;;;;5097357;28;20443;-62
2021/12/08 07:59:47;;;;;;;7.80;2.15;;;5.10;99.90;;;;;;5100351;28;20072;-62
2021/12/08 08:02:13;;;;;;;8.88;2.67;;;5.10;99.90;;;;;;5096664;28;20226;-62
2021/12/08 08:04:43;;;;;;;9.70;2.75;;;5.10;99.90;;;;;;5096679;28;20071;-62
2021/12/08 08:07:10;;;;;;;5.93;1.90;;;5.10;99.90;;;;;;5094386;28;20631;-62
2021/12/08 08:09:42;;;;;;;10.38;3.55;;;5.10;99.90;;;;;;5095740;28;20123;-62
2021/12/08 08:12:14;;;;;;;4.32;1.40;;;5.10;99.90;;;;;;5095576;28;20048;-62
2021/12/08 08:14:48;;;;;;;9.23;1.98;;;5.10;99.90;;;;;;5114721;27;20059;-62
2021/12/08 08:17:18;;;;;;;4.28;2.08;;;5.10;99.90;;;;;;5097104;28;20114;-62
2021/12/08 08:19:45;;;;;;;6.05;1.77;;;5.10;99.90;;;;;;5128938;27;20055;-62
2021/12/08 08:22:26;;;;;;;9.30;2.05;;;5.10;99.90;;;;;;5101488;28;20054;-62
2021/12/08 08:24:53;;;;;;;7.30;1.50;;;5.20;99.90;;;;;;5097423;27;20042;-62
2021/12/08 08:27:20;;;;;;;12.73;2.35;;;5.20;99.90;;;;;;5127071;27;20036;-62
2021/12/08 08:29:46;;;;;;;7.43;1.40;;;5.20;99.90;;;;;;5096131;28;20551;-62
2021/12/08 08:32:23;;;;;;;7.05;1.92;;;5.30;99.90;;;;;;5095140;28;20036;-62
2021/12/08 08:34:53;;;;;;;10.38;1.73;;;5.20;99.90;;;;;;5095119;27;20082;-62
2021/12/08 08:37:19;;;;;;;8.32;1.70;;;5.20;99.90;;;;;;5098102;28;20043;-62
2021/12/08 08:39:51;;;;;;;6.90;1.35;;;5.30;99.90;;;;;;5096653;28;20116;-62
2021/12/08 08:42:31;;;;;;;8.25;1.30;;;5.20;99.90;;;;;;5098592;28;20052;-62
2021/12/08 08:45:07;;;;;;;8.30;1.20;;;5.30;99.90;;;;;;5095313;28;20043;-62
2021/12/08 08:47:45;;;;;;;7.78;1.75;;;5.30;99.90;;;;;;5097578;28;20044;-62
2021/12/08 08:50:19;;;;;;;6.55;1.52;;;5.40;99.90;;;;;;5094537;28;20047;-62
2021/12/08 08:52:48;;;;;;;8.98;1.60;;;5.40;99.90;;;;;;5097258;28;20043;-62
2021/12/08 08:55:37;;;;;;;5.10;1.25;;;5.50;99.90;;;;;;5096828;28;20485;-61
2021/12/08 08:58:08;;;;;;;9.45;1.33;;;5.50;99.90;;;;;;5127308;27;20542;-62
2021/12/08 09:00:46;;;;;;;9.45;2.55;;;5.50;99.90;;;;;;5095676;28;20063;-62
2021/12/08 09:03:17;;;;;;;6.57;1.38;;;5.60;99.90;;;;;;5096129;28;21066;-62
2021/12/08 09:05:52;;;;;;;6.90;1.20;;;5.60;99.90;;;;;;5096086;27;20028;-62
2021/12/08 09:08:20;;;;;;;6.70;1.23;;;5.60;99.90;;;;;;5096609;28;20082;-62
2021/12/08 09:10:58;;;;;;;11.80;1.63;;;5.60;99.90;;;;;;5093137;28;20046;-62
2021/12/08 09:13:35;;;;;;;6.78;1.65;;;5.50;99.90;;;;;;5079903;28;20047;-62
2021/12/08 09:16:26;;;;;;;10.40;2.97;;;5.60;99.90;;;;;;5097093;28;20051;-62
2021/12/08 09:19:04;;;;;;;9.05;1.63;;;5.60;99.90;;;;;;5084422;28;20083;-62
2021/12/08 09:21:39;;;;;;;8.43;1.30;;;5.60;99.90;;;;;;5130677;27;20495;-62
2021/12/08 09:24:11;;;;;;;8.15;1.45;;;5.60;99.90;;;;;;5095790;28;20032;-62
2021/12/08 09:26:46;;;;;;;9.65;1.85;;;5.60;99.90;;;;;;5093551;28;20118;-62
2021/12/08 09:29:29;;;;;;;15.43;1.88;;;5.60;99.90;;;;;;5094768;28;20032;-62
2021/12/08 09:32:04;;;;;;;6.30;1.08;;;5.60;99.90;;;;;;5095269;28;20043;-62
2021/12/08 09:34:36;;;;;;;11.33;2.17;;;5.60;99.90;;;;;;5081856;28;20043;-62
2021/12/08 09:37:10;;;;;;;6.65;1.17;;;5.70;99.90;;;;;;5094614;28;20436;-62
2021/12/08 09:39:48;;;;;;;5.78;1.35;;;5.70;99.90;;;;;;5082757;28;20043;-62
2021/12/08 09:42:18;;;;;;;8.57;1.38;;;5.60;99.90;;;;;;5093356;28;20423;-62
2021/12/08 09:44:48;;;;;;;12.57;1.60;;;5.70;99.90;;;;;;5125564;27;20362;-62
2021/12/08 09:47:14;;;;;;;11.48;2.15;;;5.70;99.90;;;;;;5126858;27;20075;-62
2021/12/08 09:49:41;;;;;;;9.48;1.88;;;5.80;99.90;;;;;;5097495;28;20036;-62
2021/12/08 09:52:08;;;;;;;8.43;1.73;;;5.80;99.90;;;;;;5093595;28;20039;-62
2021/12/08 09:54:37;;;;;;;5.45;1.17;;;5.90;99.90;;;;;;5094550;28;20036;-62
2021/12/08 09:57:10;;;;;;;9.07;1.90;;;5.90;99.90;;;;;;5125473;27;20044;-62
2021/12/08 09:59:40;;;;;;;10.70;1.60;;;5.90;99.90;;;;;;5095301;28;21600;-62
2021/12/08 10:02:08;;;;;;;9.82;1.38;;;5.90;99.90;;;;;;5095519;28;20119;-62
2021/12/08 10:04:34;;;;;;;7.68;1.95;;;5.90;99.90;;;;;;5095773;28;20454;-62
2021/12/08 10:07:02;;;;;;;10.70;1.42;;;6.00;99.90;;;;;;5128233;27;20126;-62
2021/12/08 10:09:28;;;;;;;16.10;2.92;;;6.00;99.90;;;;;;5097825;28;20067;-62
2021/12/08 10:11:55;;;;;;;8.13;1.63;;;6.10;99.90;;;;;;5096497;28;22346;-62
2021/12/08 10:14:22;;;;;;;7.80;1.40;;;6.30;99.90;;;;;;5124943;27;20052;-62
2021/12/08 10:16:52;;;;;;;9.65;1.80;;;6.60;99.90;;;;;;5097655;28;20027;-62
2021/12/08 10:19:18;;;;;;;9.85;1.20;;;6.80;99.90;;;;;;5097358;28;20054;-62
2021/12/08 10:21:46;;;;;;;8.38;1.70;;;6.90;99.90;;;;;;5095559;28;20036;-62
2021/12/08 10:24:17;;;;;;;9.38;1.92;;;6.90;99.90;;;;;;5095565;28;20031;-62
2021/12/08 10:26:47;;;;;;;10.10;1.30;;;7.00;99.90;;;;;;5094516;28;20084;-62
2021/12/08 10:29:13;;;;;;;10.10;2.17;;;7.00;99.90;;;;;;5093923;28;20543;-62
2021/12/08 10:31:47;;;;;;;16.88;3.10;;;6.90;99.90;;;;;;5093600;28;20133;-62
2021/12/08 10:36:56;;;;;;;9.50;1.95;;;7.00;99.90;;;;;;5096258;28;20051;-62
2021/12/08 10:39:45;;;;;;;8.07;1.45;;;7.10;99.90;;;;;;5095117;28;20043;-62
2021/12/08 10:42:13;;;;;;;9.15;1.42;;;7.20;99.90;;;;;;5094574;28;20081;-62
2021/12/08 10:44:49;;;;;;;12.25;2.63;;;7.30;99.90;;;;;;5092147;28;20047;-62
2021/12/08 10:47:49;;;;;;;10.32;2.05;;;7.40;99.90;;;;;;5094956;28;20118;-62
2021/12/08 10:56:16;;;;;;;5.68;0.98;;;7.60;99.90;;;;;;5100809;28;20055;-62
2021/12/08 10:58:53;;;;;;;7.60;1.30;;;7.70;99.90;;;;;;5097969;28;20114;-62
2021/12/08 11:01:24;;;;;;;7.00;1.60;;;7.80;99.90;;;;;;5131122;27;20036;-62
2021/12/08 11:04:08;;;;;;;9.00;1.60;;;7.90;99.90;;;;;;5098388;28;20031;-62
2021/12/08 11:06:36;;;;;;;13.35;1.98;;;8.00;99.90;;;;;;5099258;28;20369;-62
2021/12/08 11:09:06;;;;;;;9.30;1.65;;;8.10;99.90;;;;;;5098185;27;20643;-62
2021/12/08 11:11:33;;;;;;;7.97;1.38;;;7.90;99.90;;;;;;5130995;27;20515;-62
2021/12/08 11:14:02;;;;;;;6.07;1.83;;;7.80;99.90;;;;;;5099140;28;20074;-62
2021/12/08 11:16:31;;;;;;;6.38;1.10;;;7.70;99.90;;;;;;5097376;27;20050;-62
2021/12/08 11:19:04;;;;;;;9.35;1.45;;;7.50;99.90;;;;;;5102798;27;20052;-62
2021/12/08 11:21:37;;;;;;;7.90;1.38;;;7.40;99.90;;;;;;5099161;28;20036;-62
2021/12/08 11:24:30;;;;;;;8.00;1.48;;;7.30;99.90;;;;;;5093855;28;20048;-62
2021/12/08 11:26:57;;;;;;;14.82;1.60;;;7.70;99.90;;;;;;5094077;28;20043;-62
2021/12/08 11:29:26;;;;;;;9.00;1.58;;;7.20;99.90;;;;;;5100020;28;20071;-62
2021/12/08 11:32:00;;;;;;;9.85;1.17;;;7.20;99.90;;;;;;5114567;27;20036;-62
2021/12/08 11:34:29;;;;;;;7.80;1.90;;;7.00;99.90;;;;;;5093343;28;20439;-62
2021/12/08 11:36:59;;;;;;;9.15;1.15;;;7.00;99.90;;;;;;5094771;28;20054;-62
2021/12/08 11:39:31;;;;;;;9.73;1.23;;;6.90;99.90;;;;;;5093901;27;20047;-62
2021/12/08 11:42:12;;;;;;;6.85;1.20;;;6.90;99.90;;;;;;5097745;28;20123;-62
2021/12/08 11:44:41;;;;;;;7.55;1.52;;;6.80;99.90;;;;;;5096397;27;20533;-62
2021/12/08 11:47:17;;;;;;;8.55;1.52;;;6.80;99.90;;;;;;5101268;27;20044;-62
2021/12/08 11:49:46;;;;;;;5.43;1.13;;;6.70;99.90;;;;;;5098508;28;20131;-62
2021/12/08 11:52:18;;;;;;;6.15;1.40;;;6.70;99.90;;;;;;5098686;27;20603;-62
2021/12/08 11:55:17;;;;;;;9.40;1.48;;;6.70;99.90;;;;;;5082493;28;20042;-62
2021/12/08 11:57:47;;;;;;;8.05;1.92;;;6.60;99.90;;;;;;5091832;27;20044;-62
2021/12/08 12:00:18;;;;;;;8.38;1.73;;;6.60;99.90;;;;;;5099058;28;20192;-62
2021/12/08 12:02:56;;;;;;;5.40;1.50;;;6.50;99.90;;;;;;5099189;27;20127;-62
2021/12/08 12:05:34;;;;;;;13.57;1.67;;;6.50;99.90;;;;;;5096242;27;20048;-62
2021/12/08 12:08:02;;;;;;;9.57;2.08;;;6.50;99.90;;;;;;5094829;28;20556;-62
2021/12/08 12:10:31;;;;;;;11.30;2.10;;;6.40;99.90;;;;;;5096970;28;20039;-62
2021/12/08 12:12:57;;;;;;;12.05;2.10;;;6.40;99.90;;;;;;5094770;28;20550;-62
2021/12/08 12:15:24;;;;;;;9.18;1.40;;;6.40;99.90;;;;;;5095110;27;20493;-62
2021/12/08 12:17:50;;;;;;;10.30;2.30;;;6.40;99.90;;;;;;5097414;28;20039;-62
2021/12/08 12:20:24;;;;;;;9.45;1.98;;;6.30;99.90;;;;;;5125933;27;20055;-62
2021/12/08 12:23:20;;;;;;;7.00;1.67;;;6.40;99.90;;;;;;5095231;28;20147;-62
2021/12/08 12:26:06;;;;;;;11.68;3.65;;;6.30;99.90;;;;;;5094529;28;20063;-62
2021/12/08 12:29:18;;;;;;;11.85;2.67;;;6.30;99.90;;;;;;5098883;28;20055;-62
2021/12/08 12:31:52;;;;;;;10.07;1.60;;;6.30;99.90;;;;;;5040297;28;20037;-62
2021/12/08 12:34:38;;;;;;;7.35;2.30;;;6.30;99.90;;;;;;5022349;28;20040;-63
2021/12/08 12:37:34;;;;;;;5.78;2.33;;;6.30;99.90;;;;;;5074786;28;20051;-62
2021/12/08 12:40:02;;;;;;;8.43;1.67;;;6.30;99.90;;;;;;5095182;28;20051;-63
2021/12/08 12:42:52;;;;;;;9.23;1.95;;;6.30;99.90;;;;;;5127518;27;20055;-62
2021/12/08 12:45:19;;;;;;;10.65;2.20;;;6.30;99.90;;;;;;5126755;27;20485;-62
2021/12/08 12:48:07;;;;;;;10.52;1.73;;;6.30;99.90;;;;;;5128374;27;20031;-62
2021/12/08 12:50:52;;;;;;;8.35;2.17;;;6.20;99.90;;;;;;5095145;27;20040;-62
2021/12/08 12:53:55;;;;;;;4.32;1.40;;;6.30;99.90;;;;;;5093643;28;20051;-62
2021/12/08 12:56:30;;;;;;;8.05;1.75;;;6.30;99.90;;;;;;5096632;27;20064;-62
2021/12/08 12:58:57;;;;;;;5.90;1.30;;;6.20;99.90;;;;;;5126869;27;20044;-62
2021/12/08 13:01:34;;;;;;;4.07;1.13;;;6.30;99.90;;;;;;5095542;28;20183;-62
2021/12/08 13:04:09;;;;;;;5.78;1.42;;;6.40;99.90;;;;;;5094809;28;20047;-62
2021/12/08 13:06:42;;;;;;;8.15;1.67;;;6.30;99.90;;;;;;5097228;28;20162;-62
2021/12/08 13:09:32;;;;;;;10.50;2.10;;;6.30;99.90;;;;;;5092924;28;20043;-62
2021/12/08 13:12:23;;;;;;;7.63;1.65;;;6.30;99.90;;;;;;5096121;28;20173;-62
2021/12/08 13:15:16;;;;;;;7.85;1.65;;;6.30;99.90;;;;;;5096107;28;20040;-62
2021/12/08 13:18:00;;;;;;;5.07;1.90;;;6.30;99.90;;;;;;5094655;28;20062;-62
2021/12/08 13:20:28;;;;;;;10.02;2.00;;;6.30;99.90;;;;;;5128044;27;20044;-62
2021/12/08 13:22:56;;;;;;;12.27;1.80;;;6.30;99.90;;;;;;5094410;28;20035;-62
2021/12/08 13:31:25;;;;;;;8.40;1.38;;;6.40;99.90;;;;;;5095541;28;20050;-62
2021/12/08 13:33:51;;;;;;;8.07;1.20;;;6.30;99.90;;;;;;5096779;28;20040;-62
2021/12/08 13:36:20;;;;;;;13.77;1.52;;;6.30;99.90;;;;;;5095788;28;20038;-62
2021/12/08 13:39:04;;;;;;;6.30;1.35;;;6.40;99.90;;;;;;5093330;28;20031;-62
2021/12/08 13:41:34;;;;;;;9.95;1.70;;;6.30;99.90;;;;;;5095190;28;20082;-62
2021/12/08 13:44:17;;;;;;;14.32;2.60;;;6.40;99.90;;;;;;5095497;28;20039;-62
2021/12/08 13:46:45;;;;;;;10.35;1.90;;;6.40;99.90;;;;;;5096696;28;20059;-62
2021/12/08 13:49:26;;;;;;;6.68;1.50;;;6.40;99.90;;;;;;5094970;28;20043;-62
2021/12/08 13:52:07;;;;;;;8.20;1.17;;;6.40;99.90;;;;;;5125773;27;20040;-62
2021/12/08 13:54:38;;;;;;;6.50;1.60;;;6.40;99.90;;;;;;5093356;28;20043;-62
2021/12/08 13:57:28;;;;;;;7.70;1.45;;;6.40;99.90;;;;;;5094499;28;20047;-62
2021/12/08 13:59:57;;;;;;;7.32;1.30;;;6.40;99.90;;;;;;5093941;28;20076;-62
2021/12/08 14:02:29;;;;;;;7.80;1.67;;;6.40;99.90;;;;;;5093369;28;20039;-62
2021/12/08 14:05:08;;;;;;;10.50;1.15;;;6.40;99.90;;;;;;5095825;28;20040;-62
2021/12/08 14:07:37;;;;;;;8.70;1.88;;;6.40;99.90;;;;;;5127986;27;20378;-62
2021/12/08 14:10:15;;;;;;;4.43;0.90;;;6.40;99.90;;;;;;5078655;28;20040;-62
2021/12/08 14:12:53;;;;;;;8.25;1.60;;;6.40;99.90;;;;;;5125383;27;20790;-62
2021/12/08 14:15:32;;;;;;;8.38;1.30;;;6.40;99.90;;;;;;5096024;28;20059;-62